sensor_id;sensor_type;location;lat;lon;timestamp;pressure;altitude;pressure_sealevel;temperature;humidity
51781;BME280;37844;57.126;24.288;2023-03-18T00:01:52;102292.28;;;4.43;72.91
51781;BME280;37844;57.126;24.288;2023-03-18T00:04:37;102300.06;;;4.44;72.96
51781;BME280;37844;57.126;24.288;2023-03-18T00:07:23;102303.78;;;4.36;72.41
51781;BME280;37844;57.126;24.288;2023-03-18T00:10:07;102288.88;;;4.42;73.16
51781;BME280;37844;57.126;24.288;2023-03-18T00:12:53;102290.72;;;4.45;72.55
51781;BME280;37844;57.126;24.288;2023-03-18T00:15:37;102294.09;;;4.44;72.36
51781;BME280;37844;57.126;24.288;2023-03-18T00:18:21;102276.56;;;4.50;71.79
51781;BME280;37844;57.126;24.288;2023-03-18T00:21:05;102301.34;;;4.51;71.84
51781;BME280;37844;57.126;24.288;2023-03-18T00:23:49;102283.53;;;4.53;71.56
51781;BME280;37844;57.126;24.288;2023-03-18T00:26:36;102286.00;;;4.51;71.25
51781;BME280;37844;57.126;24.288;2023-03-18T00:29:22;102278.44;;;4.53;71.35
51781;BME280;37844;57.126;24.288;2023-03-18T00:32:06;102279.94;;;4.49;71.18
51781;BME280;37844;57.126;24.288;2023-03-18T00:34:51;102266.81;;;4.58;71.55
51781;BME280;37844;57.126;24.288;2023-03-18T00:37:35;102262.00;;;4.62;70.49
51781;BME280;37844;57.126;24.288;2023-03-18T00:40:19;102263.69;;;4.62;70.95
51781;BME280;37844;57.126;24.288;2023-03-18T00:43:10;102249.84;;;4.58;70.06
51781;BME280;37844;57.126;24.288;2023-03-18T00:45:57;102258.16;;;4.69;70.26
51781;BME280;37844;57.126;24.288;2023-03-18T00:48:41;102258.69;;;4.63;70.03
51781;BME280;37844;57.126;24.288;2023-03-18T00:51:27;102253.00;;;4.54;70.05
51781;BME280;37844;57.126;24.288;2023-03-18T00:54:12;102229.31;;;4.57;70.04
51781;BME280;37844;57.126;24.288;2023-03-18T00:57:00;102241.09;;;4.55;69.54
51781;BME280;37844;57.126;24.288;2023-03-18T00:59:44;102246.50;;;4.59;70.26
51781;BME280;37844;57.126;24.288;2023-03-18T01:02:29;102239.44;;;4.55;69.71
51781;BME280;37844;57.126;24.288;2023-03-18T01:05:13;102241.97;;;4.55;69.80
51781;BME280;37844;57.126;24.288;2023-03-18T01:07:58;102242.19;;;4.58;69.06
51781;BME280;37844;57.126;24.288;2023-03-18T01:10:42;102230.00;;;4.54;68.97
51781;BME280;37844;57.126;24.288;2023-03-18T01:13:26;102234.38;;;4.42;68.87
51781;BME280;37844;57.126;24.288;2023-03-18T01:16:10;102234.94;;;4.51;69.42
51781;BME280;37844;57.126;24.288;2023-03-18T01:18:54;102251.44;;;4.56;68.67
51781;BME280;37844;57.126;24.288;2023-03-18T01:21:39;102241.09;;;4.55;68.68
51781;BME280;37844;57.126;24.288;2023-03-18T01:24:23;102220.63;;;4.40;69.20
51781;BME280;37844;57.126;24.288;2023-03-18T01:27:07;102249.59;;;4.40;69.05
51781;BME280;37844;57.126;24.288;2023-03-18T01:29:51;102238.09;;;4.47;68.75
51781;BME280;37844;57.126;24.288;2023-03-18T01:32:35;102225.16;;;4.44;68.84
51781;BME280;37844;57.126;24.288;2023-03-18T01:35:20;102226.50;;;4.39;69.44
51781;BME280;37844;57.126;24.288;2023-03-18T01:38:04;102251.56;;;4.44;69.63
51781;BME280;37844;57.126;24.288;2023-03-18T01:40:48;102237.53;;;4.38;69.24
51781;BME280;37844;57.126;24.288;2023-03-18T01:43:35;102223.19;;;4.40;69.36
51781;BME280;37844;57.126;24.288;2023-03-18T01:46:36;102233.91;;;4.34;70.17
51781;BME280;37844;57.126;24.288;2023-03-18T01:49:22;102246.56;;;4.33;70.77
51781;BME280;37844;57.126;24.288;2023-03-18T01:54:54;102243.53;;;4.25;71.24
51781;BME280;37844;57.126;24.288;2023-03-18T01:57:40;102243.72;;;4.28;71.09
51781;BME280;37844;57.126;24.288;2023-03-18T02:00:25;102234.22;;;4.25;71.94
51781;BME280;37844;57.126;24.288;2023-03-18T02:03:11;102238.44;;;4.25;72.29
51781;BME280;37844;57.126;24.288;2023-03-18T02:05:55;102238.34;;;4.23;72.33
51781;BME280;37844;57.126;24.288;2023-03-18T02:08:39;102247.66;;;4.23;72.86
51781;BME280;37844;57.126;24.288;2023-03-18T02:11:23;102249.53;;;4.25;72.79
51781;BME280;37844;57.126;24.288;2023-03-18T02:14:08;102259.53;;;4.22;72.50
51781;BME280;37844;57.126;24.288;2023-03-18T02:17:00;102254.16;;;4.18;72.84
51781;BME280;37844;57.126;24.288;2023-03-18T02:22:40;102250.81;;;4.19;73.09
51781;BME280;37844;57.126;24.288;2023-03-18T02:28:28;102267.09;;;4.08;73.38
51781;BME280;37844;57.126;24.288;2023-03-18T02:31:14;102256.13;;;4.09;73.51
51781;BME280;37844;57.126;24.288;2023-03-18T02:33:59;102258.97;;;4.13;73.41
51781;BME280;37844;57.126;24.288;2023-03-18T02:36:43;102261.41;;;4.12;74.20
51781;BME280;37844;57.126;24.288;2023-03-18T02:39:27;102254.44;;;4.09;73.79
51781;BME280;37844;57.126;24.288;2023-03-18T02:42:13;102264.84;;;4.12;73.36
51781;BME280;37844;57.126;24.288;2023-03-18T02:44:57;102250.13;;;4.08;73.80
51781;BME280;37844;57.126;24.288;2023-03-18T02:47:42;102256.81;;;4.06;73.97
51781;BME280;37844;57.126;24.288;2023-03-18T02:50:26;102245.69;;;4.06;73.63
51781;BME280;37844;57.126;24.288;2023-03-18T02:53:11;102266.09;;;4.06;74.06
51781;BME280;37844;57.126;24.288;2023-03-18T02:55:55;102276.53;;;4.09;73.55
51781;BME280;37844;57.126;24.288;2023-03-18T02:58:39;102271.50;;;4.10;73.68
51781;BME280;37844;57.126;24.288;2023-03-18T03:01:24;102277.50;;;4.11;74.07
51781;BME280;37844;57.126;24.288;2023-03-18T03:04:08;102290.97;;;4.08;74.00
51781;BME280;37844;57.126;24.288;2023-03-18T03:06:52;102274.84;;;4.09;74.03
51781;BME280;37844;57.126;24.288;2023-03-18T03:09:36;102269.16;;;4.00;73.99
51781;BME280;37844;57.126;24.288;2023-03-18T03:12:20;102262.31;;;3.99;74.09
51781;BME280;37844;57.126;24.288;2023-03-18T03:15:05;102292.13;;;4.00;73.84
51781;BME280;37844;57.126;24.288;2023-03-18T03:17:50;102258.16;;;4.01;74.25
51781;BME280;37844;57.126;24.288;2023-03-18T03:20:34;102263.00;;;3.96;74.61
51781;BME280;37844;57.126;24.288;2023-03-18T03:23:20;102271.03;;;4.02;73.95
51781;BME280;37844;57.126;24.288;2023-03-18T03:26:04;102259.13;;;4.03;73.89
51781;BME280;37844;57.126;24.288;2023-03-18T03:28:49;102253.97;;;4.01;74.13
51781;BME280;37844;57.126;24.288;2023-03-18T03:31:34;102265.53;;;3.96;74.38
51781;BME280;37844;57.126;24.288;2023-03-18T03:34:18;102253.75;;;3.98;74.25
51781;BME280;37844;57.126;24.288;2023-03-18T03:37:02;102261.22;;;3.95;74.46
51781;BME280;37844;57.126;24.288;2023-03-18T03:39:46;102269.84;;;3.97;74.37
51781;BME280;37844;57.126;24.288;2023-03-18T03:42:31;102258.94;;;3.87;74.49
51781;BME280;37844;57.126;24.288;2023-03-18T03:45:16;102249.72;;;3.89;74.08
51781;BME280;37844;57.126;24.288;2023-03-18T03:48:01;102241.78;;;3.97;74.02
51781;BME280;37844;57.126;24.288;2023-03-18T03:50:51;102232.25;;;3.81;74.38
51781;BME280;37844;57.126;24.288;2023-03-18T03:53:35;102256.59;;;3.90;73.99
51781;BME280;37844;57.126;24.288;2023-03-18T03:56:19;102237.88;;;3.89;73.61
51781;BME280;37844;57.126;24.288;2023-03-18T03:59:03;102248.84;;;3.88;73.81
51781;BME280;37844;57.126;24.288;2023-03-18T04:01:47;102222.47;;;3.88;74.27
51781;BME280;37844;57.126;24.288;2023-03-18T04:04:31;102240.31;;;3.88;74.04
51781;BME280;37844;57.126;24.288;2023-03-18T04:07:15;102223.34;;;3.88;73.86
51781;BME280;37844;57.126;24.288;2023-03-18T04:09:59;102221.09;;;3.93;73.14
51781;BME280;37844;57.126;24.288;2023-03-18T04:12:44;102220.88;;;3.76;73.44
51781;BME280;37844;57.126;24.288;2023-03-18T04:15:31;102263.38;;;3.76;73.40
51781;BME280;37844;57.126;24.288;2023-03-18T04:18:22;102244.31;;;3.84;72.98
51781;BME280;37844;57.126;24.288;2023-03-18T04:21:06;102248.66;;;3.85;73.26
51781;BME280;37844;57.126;24.288;2023-03-18T04:23:50;102219.63;;;3.83;73.64
51781;BME280;37844;57.126;24.288;2023-03-18T04:26:34;102226.16;;;3.79;73.18
51781;BME280;37844;57.126;24.288;2023-03-18T04:29:18;102222.56;;;3.89;73.13
51781;BME280;37844;57.126;24.288;2023-03-18T04:32:02;102235.91;;;3.85;72.78
51781;BME280;37844;57.126;24.288;2023-03-18T04:34:46;102219.13;;;3.89;72.44
51781;BME280;37844;57.126;24.288;2023-03-18T04:37:30;102233.72;;;3.91;72.06
51781;BME280;37844;57.126;24.288;2023-03-18T04:40:14;102222.56;;;3.89;72.51
51781;BME280;37844;57.126;24.288;2023-03-18T04:42:58;102220.78;;;3.88;71.88
51781;BME280;37844;57.126;24.288;2023-03-18T04:45:42;102221.59;;;3.87;72.50
51781;BME280;37844;57.126;24.288;2023-03-18T04:48:26;102228.56;;;3.90;71.98
51781;BME280;37844;57.126;24.288;2023-03-18T04:51:10;102247.16;;;3.89;72.04
51781;BME280;37844;57.126;24.288;2023-03-18T04:53:55;102246.97;;;3.86;72.15
51781;BME280;37844;57.126;24.288;2023-03-18T04:56:39;102237.19;;;3.92;71.22
51781;BME280;37844;57.126;24.288;2023-03-18T04:59:23;102235.91;;;3.85;71.57
51781;BME280;37844;57.126;24.288;2023-03-18T05:02:07;102235.81;;;3.97;70.78
51781;BME280;37844;57.126;24.288;2023-03-18T05:04:51;102235.13;;;3.99;71.49
51781;BME280;37844;57.126;24.288;2023-03-18T05:07:35;102243.53;;;3.98;70.23
51781;BME280;37844;57.126;24.288;2023-03-18T05:10:20;102230.50;;;4.07;70.23
51781;BME280;37844;57.126;24.288;2023-03-18T05:13:04;102225.50;;;4.09;70.24
51781;BME280;37844;57.126;24.288;2023-03-18T05:15:48;102224.09;;;4.14;69.28
51781;BME280;37844;57.126;24.288;2023-03-18T05:18:32;102242.84;;;4.14;69.98
51781;BME280;37844;57.126;24.288;2023-03-18T05:21:16;102224.41;;;4.18;69.41
51781;BME280;37844;57.126;24.288;2023-03-18T05:24:00;102222.84;;;4.20;69.24
51781;BME280;37844;57.126;24.288;2023-03-18T05:26:44;102212.69;;;4.22;68.63
51781;BME280;37844;57.126;24.288;2023-03-18T05:29:28;102234.28;;;4.27;68.11
51781;BME280;37844;57.126;24.288;2023-03-18T05:32:12;102211.81;;;4.35;68.11
51781;BME280;37844;57.126;24.288;2023-03-18T05:34:57;102228.28;;;4.40;67.63
51781;BME280;37844;57.126;24.288;2023-03-18T05:37:41;102217.28;;;4.41;66.84
51781;BME280;37844;57.126;24.288;2023-03-18T05:40:26;102236.09;;;4.56;67.05
51781;BME280;37844;57.126;24.288;2023-03-18T05:43:10;102233.63;;;4.58;66.82
51781;BME280;37844;57.126;24.288;2023-03-18T05:45:54;102238.53;;;4.68;66.46
51781;BME280;37844;57.126;24.288;2023-03-18T05:48:38;102224.94;;;4.69;65.75
51781;BME280;37844;57.126;24.288;2023-03-18T05:51:22;102225.34;;;4.75;65.69
51781;BME280;37844;57.126;24.288;2023-03-18T05:54:06;102228.66;;;4.74;65.88
51781;BME280;37844;57.126;24.288;2023-03-18T05:56:50;102230.44;;;4.75;65.37
51781;BME280;37844;57.126;24.288;2023-03-18T05:59:35;102226.09;;;4.74;65.51
51781;BME280;37844;57.126;24.288;2023-03-18T06:02:19;102224.63;;;4.78;65.42
51781;BME280;37844;57.126;24.288;2023-03-18T06:05:03;102244.00;;;4.74;65.13
51781;BME280;37844;57.126;24.288;2023-03-18T06:07:48;102222.97;;;4.78;64.93
51781;BME280;37844;57.126;24.288;2023-03-18T06:10:32;102211.16;;;4.80;64.92
51781;BME280;37844;57.126;24.288;2023-03-18T06:13:16;102213.72;;;4.80;64.52
51781;BME280;37844;57.126;24.288;2023-03-18T06:16:00;102232.84;;;4.87;64.59
51781;BME280;37844;57.126;24.288;2023-03-18T06:18:44;102212.34;;;5.00;64.24
51781;BME280;37844;57.126;24.288;2023-03-18T06:21:28;102211.28;;;4.97;63.52
51781;BME280;37844;57.126;24.288;2023-03-18T06:24:14;102209.78;;;5.00;63.79
51781;BME280;37844;57.126;24.288;2023-03-18T06:26:58;102231.31;;;5.04;63.47
51781;BME280;37844;57.126;24.288;2023-03-18T06:29:42;102201.88;;;5.10;63.44
51781;BME280;37844;57.126;24.288;2023-03-18T06:32:27;102201.00;;;5.40;63.16
51781;BME280;37844;57.126;24.288;2023-03-18T06:35:11;102206.91;;;5.68;62.33
51781;BME280;37844;57.126;24.288;2023-03-18T06:37:55;102200.06;;;6.30;61.86
51781;BME280;37844;57.126;24.288;2023-03-18T06:40:39;102219.53;;;6.43;60.57
51781;BME280;37844;57.126;24.288;2023-03-18T06:43:23;102215.00;;;6.86;60.55
51781;BME280;37844;57.126;24.288;2023-03-18T06:46:07;102205.38;;;6.82;58.76
51781;BME280;37844;57.126;24.288;2023-03-18T06:48:51;102189.09;;;7.14;58.12
51781;BME280;37844;57.126;24.288;2023-03-18T06:51:34;102223.56;;;7.21;58.81
51781;BME280;37844;57.126;24.288;2023-03-18T06:54:19;102199.75;;;7.06;58.46
51781;BME280;37844;57.126;24.288;2023-03-18T06:57:03;102194.91;;;7.12;57.72
51781;BME280;37844;57.126;24.288;2023-03-18T06:59:49;102241.25;;;7.15;57.16
51781;BME280;37844;57.126;24.288;2023-03-18T07:02:33;102193.16;;;7.11;57.57
51781;BME280;37844;57.126;24.288;2023-03-18T07:05:17;102211.09;;;7.11;57.73
51781;BME280;37844;57.126;24.288;2023-03-18T07:08:01;102216.47;;;7.15;57.01
51781;BME280;37844;57.126;24.288;2023-03-18T07:10:45;102200.75;;;7.09;56.74
51781;BME280;37844;57.126;24.288;2023-03-18T07:13:29;102200.97;;;7.30;57.41
51781;BME280;37844;57.126;24.288;2023-03-18T07:16:14;102204.94;;;7.41;56.78
51781;BME280;37844;57.126;24.288;2023-03-18T07:18:58;102223.88;;;7.43;56.64
51781;BME280;37844;57.126;24.288;2023-03-18T07:21:42;102207.13;;;7.34;55.33
51781;BME280;37844;57.126;24.288;2023-03-18T07:24:26;102200.19;;;7.85;55.59
51781;BME280;37844;57.126;24.288;2023-03-18T07:27:11;102224.31;;;8.24;54.86
51781;BME280;37844;57.126;24.288;2023-03-18T07:29:57;102199.44;;;8.23;55.04
51781;BME280;37844;57.126;24.288;2023-03-18T07:32:41;102201.66;;;7.80;54.21
51781;BME280;37844;57.126;24.288;2023-03-18T07:35:26;102202.59;;;8.18;54.02
51781;BME280;37844;57.126;24.288;2023-03-18T07:38:10;102201.97;;;8.80;54.02
51781;BME280;37844;57.126;24.288;2023-03-18T07:40:55;102218.97;;;8.96;53.22
51781;BME280;37844;57.126;24.288;2023-03-18T07:43:39;102222.13;;;9.10;52.18
51781;BME280;37844;57.126;24.288;2023-03-18T07:46:23;102189.88;;;9.39;52.25
51781;BME280;37844;57.126;24.288;2023-03-18T07:49:07;102181.69;;;10.14;51.74
51781;BME280;37844;57.126;24.288;2023-03-18T07:51:51;102189.94;;;10.50;50.93
51781;BME280;37844;57.126;24.288;2023-03-18T07:54:35;102188.78;;;10.42;49.88
51781;BME280;37844;57.126;24.288;2023-03-18T07:57:19;102189.81;;;10.71;49.46
51781;BME280;37844;57.126;24.288;2023-03-18T08:00:04;102193.06;;;10.90;49.32
51781;BME280;37844;57.126;24.288;2023-03-18T08:02:48;102224.47;;;10.78;48.31
51781;BME280;37844;57.126;24.288;2023-03-18T08:05:32;102190.22;;;10.82;48.63
51781;BME280;37844;57.126;24.288;2023-03-18T08:08:17;102173.50;;;10.96;47.82
51781;BME280;37844;57.126;24.288;2023-03-18T08:11:00;102197.06;;;10.81;47.63
51781;BME280;37844;57.126;24.288;2023-03-18T08:13:45;102194.16;;;10.72;47.69
51781;BME280;37844;57.126;24.288;2023-03-18T08:16:29;102174.28;;;10.70;48.12
51781;BME280;37844;57.126;24.288;2023-03-18T08:19:13;102171.81;;;10.97;47.72
51781;BME280;37844;57.126;24.288;2023-03-18T08:21:56;102168.66;;;10.56;47.59
51781;BME280;37844;57.126;24.288;2023-03-18T08:24:41;102181.91;;;10.91;47.39
51781;BME280;37844;57.126;24.288;2023-03-18T08:27:25;102170.41;;;11.07;47.55
51781;BME280;37844;57.126;24.288;2023-03-18T08:30:10;102164.25;;;11.03;47.13
51781;BME280;37844;57.126;24.288;2023-03-18T08:32:54;102175.75;;;11.13;46.42
51781;BME280;37844;57.126;24.288;2023-03-18T08:35:39;102178.53;;;11.44;46.46
51781;BME280;37844;57.126;24.288;2023-03-18T08:38:24;102167.53;;;11.23;46.45
51781;BME280;37844;57.126;24.288;2023-03-18T08:41:08;102176.97;;;11.22;46.11
51781;BME280;37844;57.126;24.288;2023-03-18T08:43:52;102155.41;;;11.48;46.14
51781;BME280;37844;57.126;24.288;2023-03-18T08:46:37;102172.38;;;11.94;45.43
51781;BME280;37844;57.126;24.288;2023-03-18T08:49:22;102160.69;;;12.06;45.76
51781;BME280;37844;57.126;24.288;2023-03-18T08:52:06;102166.22;;;11.63;44.85
51781;BME280;37844;57.126;24.288;2023-03-18T08:54:50;102169.16;;;11.46;45.19
51781;BME280;37844;57.126;24.288;2023-03-18T08:57:34;102166.56;;;11.74;45.39
51781;BME280;37844;57.126;24.288;2023-03-18T09:00:19;102193.59;;;11.58;45.67
51781;BME280;37844;57.126;24.288;2023-03-18T09:03:04;102171.97;;;11.27;45.29
51781;BME280;37844;57.126;24.288;2023-03-18T09:05:47;102173.97;;;10.85;45.92
51781;BME280;37844;57.126;24.288;2023-03-18T09:08:32;102176.09;;;10.96;46.46
51781;BME280;37844;57.126;24.288;2023-03-18T09:11:16;102162.41;;;10.49;46.55
51781;BME280;37844;57.126;24.288;2023-03-18T09:14:00;102156.81;;;10.37;46.80
51781;BME280;37844;57.126;24.288;2023-03-18T09:16:44;102158.38;;;10.81;46.98
51781;BME280;37844;57.126;24.288;2023-03-18T09:19:28;102141.22;;;10.82;46.54
51781;BME280;37844;57.126;24.288;2023-03-18T09:22:13;102206.56;;;10.82;46.04
51781;BME280;37844;57.126;24.288;2023-03-18T09:24:57;102160.69;;;10.50;46.54
51781;BME280;37844;57.126;24.288;2023-03-18T09:27:41;102141.66;;;10.70;47.38
51781;BME280;37844;57.126;24.288;2023-03-18T09:30:28;102134.66;;;10.92;46.85
51781;BME280;37844;57.126;24.288;2023-03-18T09:33:12;102143.75;;;10.56;46.21
51781;BME280;37844;57.126;24.288;2023-03-18T09:35:56;102133.50;;;10.83;46.69
51781;BME280;37844;57.126;24.288;2023-03-18T09:38:40;102130.38;;;10.92;46.46
51781;BME280;37844;57.126;24.288;2023-03-18T09:44:22;102110.72;;;10.00;47.45
51781;BME280;37844;57.126;24.288;2023-03-18T09:55:57;102110.13;;;10.07;47.51
51781;BME280;37844;57.126;24.288;2023-03-18T10:01:37;102094.69;;;9.62;48.01
51781;BME280;37844;57.126;24.288;2023-03-18T10:04:26;102087.38;;;9.72;48.02
51781;BME280;37844;57.126;24.288;2023-03-18T10:07:17;102090.31;;;9.59;48.00
51781;BME280;37844;57.126;24.288;2023-03-18T10:10:05;102113.06;;;9.48;48.20
51781;BME280;37844;57.126;24.288;2023-03-18T10:12:51;102084.09;;;9.31;48.54
51781;BME280;37844;57.126;24.288;2023-03-18T10:15:40;102079.06;;;9.57;49.38
51781;BME280;37844;57.126;24.288;2023-03-18T10:18:29;102056.66;;;9.32;48.32
51781;BME280;37844;57.126;24.288;2023-03-18T10:27:09;102066.16;;;9.12;49.17
51781;BME280;37844;57.126;24.288;2023-03-18T10:35:37;102026.78;;;8.71;49.84
51781;BME280;37844;57.126;24.288;2023-03-18T10:41:45;102044.59;;;8.87;49.69
51781;BME280;37844;57.126;24.288;2023-03-18T10:44:27;102019.38;;;9.00;50.09
51781;BME280;37844;57.126;24.288;2023-03-18T10:47:29;102019.22;;;9.18;50.30
51781;BME280;37844;57.126;24.288;2023-03-18T10:50:24;102022.03;;;9.24;49.68
51781;BME280;37844;57.126;24.288;2023-03-18T10:53:29;102015.00;;;9.20;50.27
51781;BME280;37844;57.126;24.288;2023-03-18T10:56:16;102015.47;;;9.09;50.01
51781;BME280;37844;57.126;24.288;2023-03-18T10:59:00;102005.97;;;9.08;50.08
51781;BME280;37844;57.126;24.288;2023-03-18T11:01:45;102005.19;;;9.09;49.90
51781;BME280;37844;57.126;24.288;2023-03-18T11:04:31;102018.38;;;8.96;50.08
51781;BME280;37844;57.126;24.288;2023-03-18T11:07:18;102022.53;;;8.93;49.90
51781;BME280;37844;57.126;24.288;2023-03-18T11:10:10;102027.47;;;9.09;49.58
51781;BME280;37844;57.126;24.288;2023-03-18T11:12:57;101987.47;;;8.95;50.35
51781;BME280;37844;57.126;24.288;2023-03-18T11:15:47;102003.81;;;8.97;49.85
51781;BME280;37844;57.126;24.288;2023-03-18T11:18:32;101982.44;;;8.98;50.89
51781;BME280;37844;57.126;24.288;2023-03-18T11:21:17;102006.38;;;8.97;51.15
51781;BME280;37844;57.126;24.288;2023-03-18T11:24:01;101965.19;;;8.95;51.48
51781;BME280;37844;57.126;24.288;2023-03-18T11:26:54;101993.00;;;9.05;51.11
51781;BME280;37844;57.126;24.288;2023-03-18T11:29:43;101993.47;;;8.95;50.83
51781;BME280;37844;57.126;24.288;2023-03-18T11:32:32;101972.53;;;9.08;51.03
51781;BME280;37844;57.126;24.288;2023-03-18T11:35:18;101974.31;;;9.09;50.82
51781;BME280;37844;57.126;24.288;2023-03-18T11:38:03;101995.88;;;9.13;50.71
51781;BME280;37844;57.126;24.288;2023-03-18T11:40:47;101964.78;;;9.07;51.23
51781;BME280;37844;57.126;24.288;2023-03-18T11:43:31;101977.06;;;9.14;50.78
51781;BME280;37844;57.126;24.288;2023-03-18T11:46:15;101960.13;;;9.19;50.68
51781;BME280;37844;57.126;24.288;2023-03-18T11:49:00;101956.78;;;9.22;51.29
51781;BME280;37844;57.126;24.288;2023-03-18T11:51:50;101952.09;;;9.34;51.44
51781;BME280;37844;57.126;24.288;2023-03-18T11:57:22;101970.94;;;9.33;51.29
51781;BME280;37844;57.126;24.288;2023-03-18T12:06:24;101956.72;;;9.43;50.88
51781;BME280;37844;57.126;24.288;2023-03-18T12:12:04;101919.81;;;9.42;51.02
51781;BME280;37844;57.126;24.288;2023-03-18T12:17:39;101922.38;;;9.42;50.67
51781;BME280;37844;57.126;24.288;2023-03-18T12:26:06;101923.19;;;9.41;51.38
51781;BME280;37844;57.126;24.288;2023-03-18T12:31:51;101931.31;;;9.52;51.95
51781;BME280;37844;57.126;24.288;2023-03-18T12:34:46;101910.56;;;9.47;51.66
51781;BME280;37844;57.126;24.288;2023-03-18T12:43:33;101933.16;;;9.56;52.14
51781;BME280;37844;57.126;24.288;2023-03-18T12:52:06;101889.69;;;9.40;52.11
51781;BME280;37844;57.126;24.288;2023-03-18T12:57:45;101905.75;;;9.32;52.07
51781;BME280;37844;57.126;24.288;2023-03-18T13:03:35;101912.19;;;9.45;52.99
51781;BME280;37844;57.126;24.288;2023-03-18T13:18:22;101851.22;;;9.44;52.67
51781;BME280;37844;57.126;24.288;2023-03-18T13:21:07;101848.22;;;9.56;53.02
51781;BME280;37844;57.126;24.288;2023-03-18T13:38:58;101855.22;;;9.60;52.97
51781;BME280;37844;57.126;24.288;2023-03-18T13:44:49;101819.97;;;9.58;52.99
51781;BME280;37844;57.126;24.288;2023-03-18T13:47:39;101854.88;;;9.49;52.34
51781;BME280;37844;57.126;24.288;2023-03-18T13:53:37;101852.22;;;9.48;53.03
51781;BME280;37844;57.126;24.288;2023-03-18T13:59:54;101825.41;;;9.41;52.59
51781;BME280;37844;57.126;24.288;2023-03-18T14:02:32;101822.81;;;9.41;52.93
51781;BME280;37844;57.126;24.288;2023-03-18T14:14:23;101797.94;;;9.40;52.86
51781;BME280;37844;57.126;24.288;2023-03-18T14:17:14;101799.03;;;9.47;52.87
51781;BME280;37844;57.126;24.288;2023-03-18T14:26:03;101798.09;;;9.45;53.73
51781;BME280;37844;57.126;24.288;2023-03-18T14:28:52;101813.41;;;9.42;53.19
51781;BME280;37844;57.126;24.288;2023-03-18T14:31:49;101802.19;;;9.40;53.47
51781;BME280;37844;57.126;24.288;2023-03-18T14:34:51;101800.50;;;9.40;53.64
51781;BME280;37844;57.126;24.288;2023-03-18T14:37:36;101786.75;;;9.40;54.14
51781;BME280;37844;57.126;24.288;2023-03-18T14:40:37;101785.75;;;9.36;54.19
51781;BME280;37844;57.126;24.288;2023-03-18T14:43:26;101795.72;;;9.27;53.93
51781;BME280;37844;57.126;24.288;2023-03-18T14:46:14;101784.63;;;9.28;54.07
51781;BME280;37844;57.126;24.288;2023-03-18T14:49:00;101776.84;;;9.26;54.95
51781;BME280;37844;57.126;24.288;2023-03-18T14:51:43;101785.38;;;9.25;55.20
51781;BME280;37844;57.126;24.288;2023-03-18T14:54:28;101782.97;;;9.30;55.58
51781;BME280;37844;57.126;24.288;2023-03-18T14:57:13;101770.06;;;9.28;55.68
51781;BME280;37844;57.126;24.288;2023-03-18T14:59:59;101770.94;;;9.29;55.53
51781;BME280;37844;57.126;24.288;2023-03-18T15:02:43;101765.72;;;9.27;54.90
51781;BME280;37844;57.126;24.288;2023-03-18T15:05:32;101763.75;;;9.20;55.22
51781;BME280;37844;57.126;24.288;2023-03-18T15:08:17;101770.00;;;9.27;55.40
51781;BME280;37844;57.126;24.288;2023-03-18T15:11:05;101783.72;;;9.26;55.95
51781;BME280;37844;57.126;24.288;2023-03-18T15:13:52;101763.72;;;9.19;55.73
51781;BME280;37844;57.126;24.288;2023-03-18T15:16:57;101749.88;;;9.15;56.24
51781;BME280;37844;57.126;24.288;2023-03-18T15:19:41;101752.34;;;9.12;55.89
51781;BME280;37844;57.126;24.288;2023-03-18T15:22:27;101780.56;;;9.10;56.18
51781;BME280;37844;57.126;24.288;2023-03-18T15:25:19;101755.59;;;9.06;56.32
51781;BME280;37844;57.126;24.288;2023-03-18T15:28:03;101755.72;;;9.11;56.38
51781;BME280;37844;57.126;24.288;2023-03-18T15:30:53;101761.44;;;9.02;56.59
51781;BME280;37844;57.126;24.288;2023-03-18T15:33:38;101759.97;;;9.09;56.91
51781;BME280;37844;57.126;24.288;2023-03-18T15:36:22;101759.50;;;8.97;56.97
51781;BME280;37844;57.126;24.288;2023-03-18T15:42:18;101762.97;;;8.97;57.90
51781;BME280;37844;57.126;24.288;2023-03-18T15:45:03;101765.41;;;8.94;58.20
51781;BME280;37844;57.126;24.288;2023-03-18T15:47:47;101796.16;;;8.91;58.48
51781;BME280;37844;57.126;24.288;2023-03-18T15:50:31;101763.56;;;8.90;58.97
51781;BME280;37844;57.126;24.288;2023-03-18T15:53:19;101758.28;;;8.85;59.60
51781;BME280;37844;57.126;24.288;2023-03-18T15:56:12;101754.34;;;8.73;59.70
51781;BME280;37844;57.126;24.288;2023-03-18T15:58:57;101760.53;;;8.78;60.09
51781;BME280;37844;57.126;24.288;2023-03-18T16:01:42;101744.94;;;8.73;60.37
51781;BME280;37844;57.126;24.288;2023-03-18T16:04:31;101740.47;;;8.67;61.35
51781;BME280;37844;57.126;24.288;2023-03-18T16:07:17;101705.13;;;8.39;62.00
51781;BME280;37844;57.126;24.288;2023-03-18T16:10:01;101746.47;;;8.68;62.16
51781;BME280;37844;57.126;24.288;2023-03-18T16:12:45;101744.81;;;8.68;62.73
51781;BME280;37844;57.126;24.288;2023-03-18T16:15:30;101730.94;;;8.65;63.19
51781;BME280;37844;57.126;24.288;2023-03-18T16:18:15;101748.00;;;8.63;63.67
51781;BME280;37844;57.126;24.288;2023-03-18T16:21:00;101755.25;;;8.51;65.32
51781;BME280;37844;57.126;24.288;2023-03-18T16:23:45;101771.66;;;8.54;65.35
51781;BME280;37844;57.126;24.288;2023-03-18T16:26:30;101748.25;;;8.46;65.56
51781;BME280;37844;57.126;24.288;2023-03-18T16:29:15;101745.63;;;8.45;66.68
51781;BME280;37844;57.126;24.288;2023-03-18T16:32:00;101744.81;;;8.46;67.22
51781;BME280;37844;57.126;24.288;2023-03-18T16:34:44;101757.66;;;8.46;66.95
51781;BME280;37844;57.126;24.288;2023-03-18T16:37:28;101763.09;;;8.33;67.76